sensor_id;sensor_type;location;lat;lon;timestamp;temperature;humidity
19389;DHT22;9830;41.876;23.474;2023-03-01T00:01:59;5.20;99.90
19389;DHT22;9830;41.876;23.474;2023-03-01T00:04:25;5.10;99.90
19389;DHT22;9830;41.876;23.474;2023-03-01T00:06:51;5.10;99.90
19389;DHT22;9830;41.876;23.474;2023-03-01T00:09:17;5.00;99.90
19389;DHT22;9830;41.876;23.474;2023-03-01T00:11:43;4.90;99.90
19389;DHT22;9830;41.876;23.474;2023-03-01T00:14:09;4.90;99.90
19389;DHT22;9830;41.876;23.474;2023-03-01T00:16:40;4.80;99.90
19389;DHT22;9830;41.876;23.474;2023-03-01T00:19:20;4.90;99.90
19389;DHT22;9830;41.876;23.474;2023-03-01T00:21:48;4.80;99.90
19389;DHT22;9830;41.876;23.474;2023-03-01T00:24:14;4.90;99.90
19389;DHT22;9830;41.876;23.474;2023-03-01T00:26:40;4.80;99.90
19389;DHT22;9830;41.876;23.474;2023-03-01T00:29:06;4.90;99.90
19389;DHT22;9830;41.876;23.474;2023-03-01T00:31:32;4.90;99.90
19389;DHT22;9830;41.876;23.474;2023-03-01T00:34:04;4.90;99.90
19389;DHT22;9830;41.876;23.474;2023-03-01T00:36:33;4.90;99.90
19389;DHT22;9830;41.876;23.474;2023-03-01T00:38:59;4.90;99.90
19389;DHT22;9830;41.876;23.474;2023-03-01T00:41:25;4.90;99.90
19389;DHT22;9830;41.876;23.474;2023-03-01T00:43:54;4.90;99.90
19389;DHT22;9830;41.876;23.474;2023-03-01T00:46:21;5.00;99.90
19389;DHT22;9830;41.876;23.474;2023-03-01T00:48:47;5.00;99.90
19389;DHT22;9830;41.876;23.474;2023-03-01T00:51:15;5.00;99.90
19389;DHT22;9830;41.876;23.474;2023-03-01T00:53:42;5.00;99.90
19389;DHT22;9830;41.876;23.474;2023-03-01T00:56:10;5.00;99.90
19389;DHT22;9830;41.876;23.474;2023-03-01T00:58:36;5.00;99.90
19389;DHT22;9830;41.876;23.474;2023-03-01T01:01:10;5.00;99.90
19389;DHT22;9830;41.876;23.474;2023-03-01T01:03:44;5.00;99.90
19389;DHT22;9830;41.876;23.474;2023-03-01T01:06:15;5.00;99.90
19389;DHT22;9830;41.876;23.474;2023-03-01T01:08:40;5.00;99.90
19389;DHT22;9830;41.876;23.474;2023-03-01T01:11:09;5.00;99.90
19389;DHT22;9830;41.876;23.474;2023-03-01T01:13:35;5.00;99.90
19389;DHT22;9830;41.876;23.474;2023-03-01T01:16:01;5.00;99.90
19389;DHT22;9830;41.876;23.474;2023-03-01T01:18:27;5.00;99.90
19389;DHT22;9830;41.876;23.474;2023-03-01T01:20:52;5.00;99.90
19389;DHT22;9830;41.876;23.474;2023-03-01T01:23:18;5.10;99.90
19389;DHT22;9830;41.876;23.474;2023-03-01T01:25:44;5.00;99.90
19389;DHT22;9830;41.876;23.474;2023-03-01T01:28:09;5.00;99.90
19389;DHT22;9830;41.876;23.474;2023-03-01T01:30:35;5.00;99.90
19389;DHT22;9830;41.876;23.474;2023-03-01T01:33:00;5.00;99.90
19389;DHT22;9830;41.876;23.474;2023-03-01T01:35:27;5.10;99.90
19389;DHT22;9830;41.876;23.474;2023-03-01T01:37:53;5.00;99.90
19389;DHT22;9830;41.876;23.474;2023-03-01T01:40:18;5.00;99.90
19389;DHT22;9830;41.876;23.474;2023-03-01T01:42:44;4.90;99.90
19389;DHT22;9830;41.876;23.474;2023-03-01T01:47:55;4.80;99.90
19389;DHT22;9830;41.876;23.474;2023-03-01T01:50:23;4.90;99.90
19389;DHT22;9830;41.876;23.474;2023-03-01T01:52:50;4.90;99.90
19389;DHT22;9830;41.876;23.474;2023-03-01T01:55:25;4.90;99.90
19389;DHT22;9830;41.876;23.474;2023-03-01T01:57:59;4.90;99.90
19389;DHT22;9830;41.876;23.474;2023-03-01T02:00:28;4.80;99.90
19389;DHT22;9830;41.876;23.474;2023-03-01T02:03:01;4.80;99.90
19389;DHT22;9830;41.876;23.474;2023-03-01T02:08:09;4.70;99.90
19389;DHT22;9830;41.876;23.474;2023-03-01T02:10:37;4.70;99.90
19389;DHT22;9830;41.876;23.474;2023-03-01T02:13:04;4.70;99.90
19389;DHT22;9830;41.876;23.474;2023-03-01T02:15:38;4.70;99.90
19389;DHT22;9830;41.876;23.474;2023-03-01T02:18:05;4.70;99.90
19389;DHT22;9830;41.876;23.474;2023-03-01T02:23:11;4.70;99.90
19389;DHT22;9830;41.876;23.474;2023-03-01T02:28:37;4.60;99.90
19389;DHT22;9830;41.876;23.474;2023-03-01T02:31:06;4.50;99.90
19389;DHT22;9830;41.876;23.474;2023-03-01T02:33:51;4.50;99.90
19389;DHT22;9830;41.876;23.474;2023-03-01T02:36:30;4.40;99.90
19389;DHT22;9830;41.876;23.474;2023-03-01T02:38:58;4.40;99.90
19389;DHT22;9830;41.876;23.474;2023-03-01T02:41:28;4.40;99.90
19389;DHT22;9830;41.876;23.474;2023-03-01T02:43:56;4.30;99.90
19389;DHT22;9830;41.876;23.474;2023-03-01T02:46:25;4.30;99.90
19389;DHT22;9830;41.876;23.474;2023-03-01T02:48:53;4.40;99.90
19389;DHT22;9830;41.876;23.474;2023-03-01T02:54:07;4.30;99.90
19389;DHT22;9830;41.876;23.474;2023-03-01T02:56:34;4.30;99.90
19389;DHT22;9830;41.876;23.474;2023-03-01T02:59:00;4.30;99.90
19389;DHT22;9830;41.876;23.474;2023-03-01T03:01:29;4.40;99.90
19389;DHT22;9830;41.876;23.474;2023-03-01T03:04:05;4.30;99.90
19389;DHT22;9830;41.876;23.474;2023-03-01T03:06:32;4.30;99.90
19389;DHT22;9830;41.876;23.474;2023-03-01T03:08:57;4.30;99.90
19389;DHT22;9830;41.876;23.474;2023-03-01T03:11:23;4.30;99.90
19389;DHT22;9830;41.876;23.474;2023-03-01T03:13:49;4.30;99.90
19389;DHT22;9830;41.876;23.474;2023-03-01T03:16:15;4.40;99.90
19389;DHT22;9830;41.876;23.474;2023-03-01T03:18:41;4.40;99.90
19389;DHT22;9830;41.876;23.474;2023-03-01T03:21:13;4.40;99.90
19389;DHT22;9830;41.876;23.474;2023-03-01T03:23:39;4.40;99.90
19389;DHT22;9830;41.876;23.474;2023-03-01T03:26:05;4.40;99.90
19389;DHT22;9830;41.876;23.474;2023-03-01T03:28:34;4.40;99.90
19389;DHT22;9830;41.876;23.474;2023-03-01T03:31:01;4.40;99.90
19389;DHT22;9830;41.876;23.474;2023-03-01T03:33:30;4.40;99.90
19389;DHT22;9830;41.876;23.474;2023-03-01T03:35:55;4.30;99.90
19389;DHT22;9830;41.876;23.474;2023-03-01T03:38:22;4.30;99.90
19389;DHT22;9830;41.876;23.474;2023-03-01T03:40:59;4.30;99.90
19389;DHT22;9830;41.876;23.474;2023-03-01T03:43:28;4.30;99.90
19389;DHT22;9830;41.876;23.474;2023-03-01T03:45:54;4.30;99.90
19389;DHT22;9830;41.876;23.474;2023-03-01T03:48:22;4.40;99.90
19389;DHT22;9830;41.876;23.474;2023-03-01T03:50:57;4.40;99.90
19389;DHT22;9830;41.876;23.474;2023-03-01T03:53:24;4.40;99.90
19389;DHT22;9830;41.876;23.474;2023-03-01T03:55:50;4.40;99.90
19389;DHT22;9830;41.876;23.474;2023-03-01T03:58:18;4.30;99.90
19389;DHT22;9830;41.876;23.474;2023-03-01T04:00:46;4.30;99.90
19389;DHT22;9830;41.876;23.474;2023-03-01T04:03:14;4.30;99.90
19389;DHT22;9830;41.876;23.474;2023-03-01T04:05:40;4.30;99.90
19389;DHT22;9830;41.876;23.474;2023-03-01T04:08:07;4.40;99.90
19389;DHT22;9830;41.876;23.474;2023-03-01T04:10:40;4.40;99.90
19389;DHT22;9830;41.876;23.474;2023-03-01T04:13:09;4.50;99.90
19389;DHT22;9830;41.876;23.474;2023-03-01T04:15:36;4.50;99.90
19389;DHT22;9830;41.876;23.474;2023-03-01T04:18:02;4.50;99.90
19389;DHT22;9830;41.876;23.474;2023-03-01T04:20:31;4.40;99.90
19389;DHT22;9830;41.876;23.474;2023-03-01T04:23:04;4.40;99.90
19389;DHT22;9830;41.876;23.474;2023-03-01T04:25:41;4.40;99.90
19389;DHT22;9830;41.876;23.474;2023-03-01T04:28:08;4.40;99.90
19389;DHT22;9830;41.876;23.474;2023-03-01T04:30:35;4.40;99.90
19389;DHT22;9830;41.876;23.474;2023-03-01T04:33:05;4.40;99.90
19389;DHT22;9830;41.876;23.474;2023-03-01T04:35:32;4.30;99.90
19389;DHT22;9830;41.876;23.474;2023-03-01T04:37:59;4.20;99.90
19389;DHT22;9830;41.876;23.474;2023-03-01T04:40:25;4.30;99.90
19389;DHT22;9830;41.876;23.474;2023-03-01T04:42:51;4.30;99.90
19389;DHT22;9830;41.876;23.474;2023-03-01T04:45:16;4.30;99.90
19389;DHT22;9830;41.876;23.474;2023-03-01T04:47:44;4.30;99.90
19389;DHT22;9830;41.876;23.474;2023-03-01T04:50:13;4.30;99.90
19389;DHT22;9830;41.876;23.474;2023-03-01T04:52:39;4.30;99.90
19389;DHT22;9830;41.876;23.474;2023-03-01T04:55:06;4.30;99.90
19389;DHT22;9830;41.876;23.474;2023-03-01T04:57:32;4.30;99.90
19389;DHT22;9830;41.876;23.474;2023-03-01T04:59:57;4.30;99.90
19389;DHT22;9830;41.876;23.474;2023-03-01T05:02:23;4.30;99.90
19389;DHT22;9830;41.876;23.474;2023-03-01T05:04:49;4.40;99.90
19389;DHT22;9830;41.876;23.474;2023-03-01T05:07:14;4.30;99.90
19389;DHT22;9830;41.876;23.474;2023-03-01T05:09:47;4.30;99.90
19389;DHT22;9830;41.876;23.474;2023-03-01T05:12:14;4.30;99.90
19389;DHT22;9830;41.876;23.474;2023-03-01T05:14:40;4.20;99.90
19389;DHT22;9830;41.876;23.474;2023-03-01T05:17:06;4.10;99.90
19389;DHT22;9830;41.876;23.474;2023-03-01T05:19:32;4.10;99.90
19389;DHT22;9830;41.876;23.474;2023-03-01T05:21:58;4.20;99.90
19389;DHT22;9830;41.876;23.474;2023-03-01T05:24:27;4.20;99.90
19389;DHT22;9830;41.876;23.474;2023-03-01T05:26:53;4.30;99.90
19389;DHT22;9830;41.876;23.474;2023-03-01T05:29:20;4.50;99.90
19389;DHT22;9830;41.876;23.474;2023-03-01T05:31:56;4.40;99.90
19389;DHT22;9830;41.876;23.474;2023-03-01T05:34:28;4.50;99.90
19389;DHT22;9830;41.876;23.474;2023-03-01T05:36:55;4.50;99.90
19389;DHT22;9830;41.876;23.474;2023-03-01T05:39:22;4.60;99.90
19389;DHT22;9830;41.876;23.474;2023-03-01T05:41:51;4.70;99.90
19389;DHT22;9830;41.876;23.474;2023-03-01T05:44:17;4.70;99.90
19389;DHT22;9830;41.876;23.474;2023-03-01T05:46:43;4.70;99.90
19389;DHT22;9830;41.876;23.474;2023-03-01T05:49:10;4.90;99.90
19389;DHT22;9830;41.876;23.474;2023-03-01T05:51:36;4.90;99.90
19389;DHT22;9830;41.876;23.474;2023-03-01T05:54:02;5.00;99.90
19389;DHT22;9830;41.876;23.474;2023-03-01T05:56:28;5.00;99.90
19389;DHT22;9830;41.876;23.474;2023-03-01T05:58:54;5.00;99.90
19389;DHT22;9830;41.876;23.474;2023-03-01T06:01:20;5.10;99.90
19389;DHT22;9830;41.876;23.474;2023-03-01T06:03:45;5.00;99.90
19389;DHT22;9830;41.876;23.474;2023-03-01T06:06:11;5.10;99.90
19389;DHT22;9830;41.876;23.474;2023-03-01T06:08:37;5.10;99.90
19389;DHT22;9830;41.876;23.474;2023-03-01T06:11:03;5.20;99.90
19389;DHT22;9830;41.876;23.474;2023-03-01T06:13:28;5.10;99.90
19389;DHT22;9830;41.876;23.474;2023-03-01T06:15:55;5.20;99.90
19389;DHT22;9830;41.876;23.474;2023-03-01T06:18:20;5.20;99.90
19389;DHT22;9830;41.876;23.474;2023-03-01T06:20:53;5.20;99.90
19389;DHT22;9830;41.876;23.474;2023-03-01T06:23:19;5.30;99.90
19389;DHT22;9830;41.876;23.474;2023-03-01T06:25:44;5.20;99.90
19389;DHT22;9830;41.876;23.474;2023-03-01T06:28:10;5.20;99.90
19389;DHT22;9830;41.876;23.474;2023-03-01T06:30:36;5.20;99.90
19389;DHT22;9830;41.876;23.474;2023-03-01T06:33:01;5.20;99.90
19389;DHT22;9830;41.876;23.474;2023-03-01T06:35:29;5.30;99.90
19389;DHT22;9830;41.876;23.474;2023-03-01T06:37:55;5.40;99.90
19389;DHT22;9830;41.876;23.474;2023-03-01T06:40:22;5.30;99.90
19389;DHT22;9830;41.876;23.474;2023-03-01T06:42:49;5.40;99.90
19389;DHT22;9830;41.876;23.474;2023-03-01T06:45:17;5.50;99.90
19389;DHT22;9830;41.876;23.474;2023-03-01T06:47:44;5.60;99.90
19389;DHT22;9830;41.876;23.474;2023-03-01T06:50:10;5.60;99.90
19389;DHT22;9830;41.876;23.474;2023-03-01T06:52:36;5.50;99.90
19389;DHT22;9830;41.876;23.474;2023-03-01T06:55:02;5.50;99.90
19389;DHT22;9830;41.876;23.474;2023-03-01T06:57:27;5.50;99.90
19389;DHT22;9830;41.876;23.474;2023-03-01T06:59:53;5.60;99.90
19389;DHT22;9830;41.876;23.474;2023-03-01T07:02:19;5.50;99.90
19389;DHT22;9830;41.876;23.474;2023-03-01T07:04:45;5.70;99.90
19389;DHT22;9830;41.876;23.474;2023-03-01T07:07:11;5.70;99.90
19389;DHT22;9830;41.876;23.474;2023-03-01T07:09:36;5.80;99.90
19389;DHT22;9830;41.876;23.474;2023-03-01T07:12:02;5.90;99.90
19389;DHT22;9830;41.876;23.474;2023-03-01T07:14:28;6.10;99.90
19389;DHT22;9830;41.876;23.474;2023-03-01T07:16:54;6.00;99.90
19389;DHT22;9830;41.876;23.474;2023-03-01T07:19:21;6.10;99.90
19389;DHT22;9830;41.876;23.474;2023-03-01T07:21:46;6.40;99.90
19389;DHT22;9830;41.876;23.474;2023-03-01T07:24:12;6.60;99.90
19389;DHT22;9830;41.876;23.474;2023-03-01T07:26:38;6.80;99.90
19389;DHT22;9830;41.876;23.474;2023-03-01T07:29:05;6.80;99.90
19389;DHT22;9830;41.876;23.474;2023-03-01T07:31:31;6.80;99.90
19389;DHT22;9830;41.876;23.474;2023-03-01T07:33:57;7.00;99.90
19389;DHT22;9830;41.876;23.474;2023-03-01T07:36:24;7.10;99.90
19389;DHT22;9830;41.876;23.474;2023-03-01T07:38:50;7.00;99.90
19389;DHT22;9830;41.876;23.474;2023-03-01T07:41:16;7.20;99.90
19389;DHT22;9830;41.876;23.474;2023-03-01T07:43:42;7.20;99.90
19389;DHT22;9830;41.876;23.474;2023-03-01T07:46:09;7.30;99.90
19389;DHT22;9830;41.876;23.474;2023-03-01T07:48:34;7.60;99.90
19389;DHT22;9830;41.876;23.474;2023-03-01T07:51:01;7.80;99.90
19389;DHT22;9830;41.876;23.474;2023-03-01T07:53:27;7.90;99.90
19389;DHT22;9830;41.876;23.474;2023-03-01T07:56:11;8.00;99.90
19389;DHT22;9830;41.876;23.474;2023-03-01T07:58:38;7.90;99.90
19389;DHT22;9830;41.876;23.474;2023-03-01T08:01:06;8.30;99.90
19389;DHT22;9830;41.876;23.474;2023-03-01T08:03:32;8.50;99.90
19389;DHT22;9830;41.876;23.474;2023-03-01T08:06:02;8.50;99.90
19389;DHT22;9830;41.876;23.474;2023-03-01T08:08:28;8.30;99.90
19389;DHT22;9830;41.876;23.474;2023-03-01T08:10:58;8.50;99.90
19389;DHT22;9830;41.876;23.474;2023-03-01T08:13:24;8.50;99.90
19389;DHT22;9830;41.876;23.474;2023-03-01T08:15:50;8.60;99.90
19389;DHT22;9830;41.876;23.474;2023-03-01T08:18:17;8.90;99.90
19389;DHT22;9830;41.876;23.474;2023-03-01T08:20:43;8.90;99.90
19389;DHT22;9830;41.876;23.474;2023-03-01T08:23:09;8.50;99.90
19389;DHT22;9830;41.876;23.474;2023-03-01T08:25:35;8.80;99.90
19389;DHT22;9830;41.876;23.474;2023-03-01T08:28:00;8.90;99.90
19389;DHT22;9830;41.876;23.474;2023-03-01T08:30:26;9.00;99.90
19389;DHT22;9830;41.876;23.474;2023-03-01T08:32:52;9.00;99.90
19389;DHT22;9830;41.876;23.474;2023-03-01T08:35:19;9.20;99.90
19389;DHT22;9830;41.876;23.474;2023-03-01T08:37:45;9.40;99.90
19389;DHT22;9830;41.876;23.474;2023-03-01T08:40:12;9.40;99.90
19389;DHT22;9830;41.876;23.474;2023-03-01T08:42:39;9.60;99.90
19389;DHT22;9830;41.876;23.474;2023-03-01T08:45:06;9.60;99.90
19389;DHT22;9830;41.876;23.474;2023-03-01T08:47:32;9.60;99.90
19389;DHT22;9830;41.876;23.474;2023-03-01T08:49:59;9.80;99.90
19389;DHT22;9830;41.876;23.474;2023-03-01T08:52:25;9.70;99.90
19389;DHT22;9830;41.876;23.474;2023-03-01T08:54:52;9.80;99.90
19389;DHT22;9830;41.876;23.474;2023-03-01T08:57:17;9.70;99.90
19389;DHT22;9830;41.876;23.474;2023-03-01T08:59:43;9.70;99.90
19389;DHT22;9830;41.876;23.474;2023-03-01T09:02:14;9.50;99.90
19389;DHT22;9830;41.876;23.474;2023-03-01T09:04:40;9.70;99.90
19389;DHT22;9830;41.876;23.474;2023-03-01T09:07:06;9.70;99.90
19389;DHT22;9830;41.876;23.474;2023-03-01T09:09:32;9.50;99.90
19389;DHT22;9830;41.876;23.474;2023-03-01T09:11:58;9.50;99.90
19389;DHT22;9830;41.876;23.474;2023-03-01T09:14:23;9.80;99.90
19389;DHT22;9830;41.876;23.474;2023-03-01T09:16:49;9.70;99.90
19389;DHT22;9830;41.876;23.474;2023-03-01T09:19:16;9.50;99.90
19389;DHT22;9830;41.876;23.474;2023-03-01T09:21:42;9.60;99.90
19389;DHT22;9830;41.876;23.474;2023-03-01T09:24:19;9.80;99.90
19389;DHT22;9830;41.876;23.474;2023-03-01T09:26:46;9.90;99.90
19389;DHT22;9830;41.876;23.474;2023-03-01T09:29:12;9.90;99.90
19389;DHT22;9830;41.876;23.474;2023-03-01T09:31:38;10.40;99.90
19389;DHT22;9830;41.876;23.474;2023-03-01T09:34:04;10.60;99.90
19389;DHT22;9830;41.876;23.474;2023-03-01T09:36:30;11.00;99.90
19389;DHT22;9830;41.876;23.474;2023-03-01T09:38:57;10.50;99.90
19389;DHT22;9830;41.876;23.474;2023-03-01T09:41:43;10.40;99.90
19389;DHT22;9830;41.876;23.474;2023-03-01T09:46:55;10.20;99.90
19389;DHT22;9830;41.876;23.474;2023-03-01T09:52:25;10.70;99.90
19389;DHT22;9830;41.876;23.474;2023-03-01T09:54:55;11.30;99.90
19389;DHT22;9830;41.876;23.474;2023-03-01T09:57:30;11.90;99.90
19389;DHT22;9830;41.876;23.474;2023-03-01T10:02:58;12.20;99.90
19389;DHT22;9830;41.876;23.474;2023-03-01T10:05:36;12.00;99.90
19389;DHT22;9830;41.876;23.474;2023-03-01T10:10:44;11.60;99.90
19389;DHT22;9830;41.876;23.474;2023-03-01T10:13:43;11.50;99.90
19389;DHT22;9830;41.876;23.474;2023-03-01T10:16:17;12.10;99.90
19389;DHT22;9830;41.876;23.474;2023-03-01T10:18:51;12.20;99.90
19389;DHT22;9830;41.876;23.474;2023-03-01T10:21:20;12.20;99.90
19389;DHT22;9830;41.876;23.474;2023-03-01T10:23:46;11.90;99.90
19389;DHT22;9830;41.876;23.474;2023-03-01T10:29:08;11.90;99.90
19389;DHT22;9830;41.876;23.474;2023-03-01T10:31:52;11.60;99.90
19389;DHT22;9830;41.876;23.474;2023-03-01T10:36:50;11.30;99.90
19389;DHT22;9830;41.876;23.474;2023-03-01T10:39:22;11.40;99.90
19389;DHT22;9830;41.876;23.474;2023-03-01T10:42:02;11.10;99.90
19389;DHT22;9830;41.876;23.474;2023-03-01T10:44:46;11.60;99.90
19389;DHT22;9830;41.876;23.474;2023-03-01T10:47:26;11.50;99.90
19389;DHT22;9830;41.876;23.474;2023-03-01T10:50:04;11.50;99.90
19389;DHT22;9830;41.876;23.474;2023-03-01T10:52:34;11.60;99.90
19389;DHT22;9830;41.876;23.474;2023-03-01T11:00:32;12.30;99.90
19389;DHT22;9830;41.876;23.474;2023-03-01T11:05:26;12.20;99.90
19389;DHT22;9830;41.876;23.474;2023-03-01T11:07:55;11.70;99.90
19389;DHT22;9830;41.876;23.474;2023-03-01T11:10:27;11.90;99.90
19389;DHT22;9830;41.876;23.474;2023-03-01T11:12:54;11.80;99.90
19389;DHT22;9830;41.876;23.474;2023-03-01T11:15:30;11.30;99.90
19389;DHT22;9830;41.876;23.474;2023-03-01T11:17:56;11.10;99.90
19389;DHT22;9830;41.876;23.474;2023-03-01T11:20:27;10.90;99.90
19389;DHT22;9830;41.876;23.474;2023-03-01T11:22:58;10.90;99.90
19389;DHT22;9830;41.876;23.474;2023-03-01T11:25:37;10.90;99.90
19389;DHT22;9830;41.876;23.474;2023-03-01T11:28:06;11.10;99.90
19389;DHT22;9830;41.876;23.474;2023-03-01T11:31:08;11.00;99.90
19389;DHT22;9830;41.876;23.474;2023-03-01T11:33:54;10.90;99.90
19389;DHT22;9830;41.876;23.474;2023-03-01T11:38:56;10.70;99.90
19389;DHT22;9830;41.876;23.474;2023-03-01T11:41:30;10.80;99.90
19389;DHT22;9830;41.876;23.474;2023-03-01T11:44:18;10.70;99.90
19389;DHT22;9830;41.876;23.474;2023-03-01T11:47:23;10.70;99.90
19389;DHT22;9830;41.876;23.474;2023-03-01T12:00:58;10.30;99.90
19389;DHT22;9830;41.876;23.474;2023-03-01T12:03:55;10.20;99.90
19389;DHT22;9830;41.876;23.474;2023-03-01T12:06:57;10.30;99.90
19389;DHT22;9830;41.876;23.474;2023-03-01T12:12:30;10.40;99.90
19389;DHT22;9830;41.876;23.474;2023-03-01T12:24:24;10.60;99.90
19389;DHT22;9830;41.876;23.474;2023-03-01T12:26:34;10.70;99.90
19389;DHT22;9830;41.876;23.474;2023-03-01T12:39:08;11.20;99.90
19389;DHT22;9830;41.876;23.474;2023-03-01T12:48:02;11.10;99.90
19389;DHT22;9830;41.876;23.474;2023-03-01T12:50:43;10.90;99.90
19389;DHT22;9830;41.876;23.474;2023-03-01T12:53:23;10.80;99.90
19389;DHT22;9830;41.876;23.474;2023-03-01T12:55:52;11.10;99.90
19389;DHT22;9830;41.876;23.474;2023-03-01T13:11:48;11.00;99.90
19389;DHT22;9830;41.876;23.474;2023-03-01T13:16:47;10.70;99.90
19389;DHT22;9830;41.876;23.474;2023-03-01T13:19:22;10.80;99.90
19389;DHT22;9830;41.876;23.474;2023-03-01T13:21:49;10.80;99.90
19389;DHT22;9830;41.876;23.474;2023-03-01T13:24:29;10.80;99.90
19389;DHT22;9830;41.876;23.474;2023-03-01T13:32:42;11.00;99.90
19389;DHT22;9830;41.876;23.474;2023-03-01T13:37:45;11.30;99.90
19389;DHT22;9830;41.876;23.474;2023-03-01T13:42:47;11.10;99.90
19389;DHT22;9830;41.876;23.474;2023-03-01T13:45:43;11.20;99.90
19389;DHT22;9830;41.876;23.474;2023-03-01T13:48:26;11.30;99.90
19389;DHT22;9830;41.876;23.474;2023-03-01T13:51:21;11.30;99.90
19389;DHT22;9830;41.876;23.474;2023-03-01T13:53:48;11.20;99.90
19389;DHT22;9830;41.876;23.474;2023-03-01T13:56:28;11.10;99.90
19389;DHT22;9830;41.876;23.474;2023-03-01T14:01:34;11.40;99.90
19389;DHT22;9830;41.876;23.474;2023-03-01T14:04:00;11.30;99.90
19389;DHT22;9830;41.876;23.474;2023-03-01T14:06:29;11.40;99.90
19389;DHT22;9830;41.876;23.474;2023-03-01T14:09:27;11.50;99.90
19389;DHT22;9830;41.876;23.474;2023-03-01T14:12:47;11.70;99.90
19389;DHT22;9830;41.876;23.474;2023-03-01T14:17:55;11.50;99.90
19389;DHT22;9830;41.876;23.474;2023-03-01T14:20:30;11.20;99.90
19389;DHT22;9830;41.876;23.474;2023-03-01T14:22:59;11.00;99.90
19389;DHT22;9830;41.876;23.474;2023-03-01T14:25:31;10.90;99.90
19389;DHT22;9830;41.876;23.474;2023-03-01T14:28:04;10.90;99.90
19389;DHT22;9830;41.876;23.474;2023-03-01T14:30:47;10.90;99.90
19389;DHT22;9830;41.876;23.474;2023-03-01T14:33:25;11.10;99.90
19389;DHT22;9830;41.876;23.474;2023-03-01T14:36:12;11.00;99.90
19389;DHT22;9830;41.876;23.474;2023-03-01T14:38:42;10.80;99.90
19389;DHT22;9830;41.876;23.474;2023-03-01T14:41:14;10.70;99.90
19389;DHT22;9830;41.876;23.474;2023-03-01T14:43:46;10.80;99.90
19389;DHT22;9830;41.876;23.474;2023-03-01T14:46:30;10.80;99.90
19389;DHT22;9830;41.876;23.474;2023-03-01T14:51:40;10.50;99.90
19389;DHT22;9830;41.876;23.474;2023-03-01T14:54:27;10.50;99.90
19389;DHT22;9830;41.876;23.474;2023-03-01T14:56:57;10.30;99.90
19389;DHT22;9830;41.876;23.474;2023-03-01T14:59:24;10.20;99.90
19389;DHT22;9830;41.876;23.474;2023-03-01T15:01:51;10.10;99.90
19389;DHT22;9830;41.876;23.474;2023-03-01T15:04:19;10.00;99.90
19389;DHT22;9830;41.876;23.474;2023-03-01T15:06:45;10.00;99.90
19389;DHT22;9830;41.876;23.474;2023-03-01T15:09:14;9.80;99.90
19389;DHT22;9830;41.876;23.474;2023-03-01T15:11:42;9.70;99.90
19389;DHT22;9830;41.876;23.474;2023-03-01T15:14:28;9.70;99.90
19389;DHT22;9830;41.876;23.474;2023-03-01T15:17:01;9.60;99.90
19389;DHT22;9830;41.876;23.474;2023-03-01T15:19:27;9.50;99.90
19389;DHT22;9830;41.876;23.474;2023-03-01T15:21:54;9.50;99.90
19389;DHT22;9830;41.876;23.474;2023-03-01T15:24:24;9.40;99.90
19389;DHT22;9830;41.876;23.474;2023-03-01T15:26:55;9.30;99.90
19389;DHT22;9830;41.876;23.474;2023-03-01T15:29:25;9.30;99.90
19389;DHT22;9830;41.876;23.474;2023-03-01T15:34:27;9.00;99.90
19389;DHT22;9830;41.876;23.474;2023-03-01T15:36:54;9.00;99.90
19389;DHT22;9830;41.876;23.474;2023-03-01T15:39:42;8.90;99.90
19389;DHT22;9830;41.876;23.474;2023-03-01T15:42:13;8.80;99.90
19389;DHT22;9830;41.876;23.474;2023-03-01T15:48:03;8.70;99.90
19389;DHT22;9830;41.876;23.474;2023-03-01T15:50:30;8.60;99.90
19389;DHT22;9830;41.876;23.474;2023-03-01T15:52:59;8.60;99.90
19389;DHT22;9830;41.876;23.474;2023-03-01T15:55:27;8.50;99.90
19389;DHT22;9830;41.876;23.474;2023-03-01T15:58:13;8.50;99.90
19389;DHT22;9830;41.876;23.474;2023-03-01T16:00:40;8.50;99.90
19389;DHT22;9830;41.876;23.474;2023-03-01T16:03:06;8.40;99.90
19389;DHT22;9830;41.876;23.474;2023-03-01T16:05:35;8.30;99.90
19389;DHT22;9830;41.876;23.474;2023-03-01T16:08:02;8.30;99.90
19389;DHT22;9830;41.876;23.474;2023-03-01T16:10:28;8.20;99.90
19389;DHT22;9830;41.876;23.474;2023-03-01T16:12:54;8.20;99.90
19389;DHT22;9830;41.876;23.474;2023-03-01T16:15:21;8.20;99.90
19389;DHT22;9830;41.876;23.474;2023-03-01T16:17:47;8.10;99.90
19389;DHT22;9830;41.876;23.474;2023-03-01T16:20:13;8.10;99.90
19389;DHT22;9830;41.876;23.474;2023-03-01T16:22:43;8.00;99.90
19389;DHT22;9830;41.876;23.474;2023-03-01T16:25:10;8.00;99.90
19389;DHT22;9830;41.876;23.474;2023-03-01T16:27:36;7.90;99.90
19389;DHT22;9830;41.876;23.474;2023-03-01T16:30:04;7.80;99.90
19389;DHT22;9830;41.876;23.474;2023-03-01T16:32:29;7.80;99.90
19389;DHT22;9830;41.876;23.474;2023-03-01T16:34:55;7.80;99.90
19389;DHT22;9830;41.876;23.474;2023-03-01T16:37:21;7.80;99.90
19389;DHT22;9830;41.876;23.474;2023-03-01T16:39:47;7.70;99.90
19389;DHT22;9830;41.876;23.474;2023-03-01T16:42:16;7.70;99.90
19389;DHT22;9830;41.876;23.474;2023-03-01T16:44:42;7.70;99.90
19389;DHT22;9830;41.876;23.474;2023-03-01T16:47:07;7.70;99.90
19389;DHT22;9830;41.876;23.474;2023-03-01T16:49:33;7.70;99.90
19389;DHT22;9830;41.876;23.474;2023-03-01T16:51:58;7.60;99.90
19389;DHT22;9830;41.876;23.474;2023-03-01T16:54:24;7.60;99.90
19389;DHT22;9830;41.876;23.474;2023-03-01T16:56:50;7.70;99.90
19389;DHT22;9830;41.876;23.474;2023-03-01T16:59:16;7.60;99.90
19389;DHT22;9830;41.876;23.474;2023-03-01T17:01:43;7.50;99.90
19389;DHT22;9830;41.876;23.474;2023-03-01T17:04:11;7.50;99.90
19389;DHT22;9830;41.876;23.474;2023-03-01T17:06:37;7.50;99.90
19389;DHT22;9830;41.876;23.474;2023-03-01T17:09:02;7.50;99.90
19389;DHT22;9830;41.876;23.474;2023-03-01T17:11:28;7.40;99.90
19389;DHT22;9830;41.876;23.474;2023-03-01T17:13:54;7.40;99.90
19389;DHT22;9830;41.876;23.474;2023-03-01T17:16:20;7.30;99.90
19389;DHT22;9830;41.876;23.474;2023-03-01T17:18:47;7.20;99.90
19389;DHT22;9830;41.876;23.474;2023-03-01T17:21:13;7.20;99.90
19389;DHT22;9830;41.876;23.474;2023-03-01T17:23:41;7.20;99.90
19389;DHT22;9830;41.876;23.474;2023-03-01T17:26:08;7.20;99.90
19389;DHT22;9830;41.876;23.474;2023-03-01T17:28:36;7.20;99.90
19389;DHT22;9830;41.876;23.474;2023-03-01T17:31:03;7.10;99.90
19389;DHT22;9830;41.876;23.474;2023-03-01T17:33:29;7.00;99.90
19389;DHT22;9830;41.876;23.474;2023-03-01T17:35:58;7.00;99.90
19389;DHT22;9830;41.876;23.474;2023-03-01T17:38:24;7.00;99.90
19389;DHT22;9830;41.876;23.474;2023-03-01T17:40:50;7.00;99.90
19389;DHT22;9830;41.876;23.474;2023-03-01T17:43:16;7.00;99.90
19389;DHT22;9830;41.876;23.474;2023-03-01T17:45:43;7.00;99.90
19389;DHT22;9830;41.876;23.474;2023-03-01T17:48:13;6.90;99.90
19389;DHT22;9830;41.876;23.474;2023-03-01T17:50:40;6.90;99.90
19389;DHT22;9830;41.876;23.474;2023-03-01T17:53:09;6.90;99.90
19389;DHT22;9830;41.876;23.474;2023-03-01T17:55:42;7.00;99.90
19389;DHT22;9830;41.876;23.474;2023-03-01T17:58:09;6.90;99.90